TFM - Tactical Decision Aid (Experimental) INFO Settings
ID: Runway Winds: CIG/VIS Threshold: METAR Board:

KGTR - Columbus-Golden Triangle Rgnl

Updated at: 2042 UTC 19 Jul 2018
Latest TAF at: 1731 UTC 19 Jul 2018

TAF Board

Time1956Z19/21Z19/22Z19/23Z20/00Z20/01Z20/02Z20/03Z20/04Z20/05Z20/06Z20/07Z20/08Z20/09Z
TypeOBSPRVLPRVLPRVLPRVLPRVLPRVLPRVLPRVLPRVLPRVLPRVLPRVLPRVL
VIS10>6>6>6>6>6>6>6>6>6>6>6>6>6
CIG--9090----------------------
CoverCLRBKNBKNFEWFEWFEWFEWFEWFEWFEWFEWFEWFEWFEW
FltCatVFRVFRVFRVFRVFRVFRVFRVFRVFRVFRVFRVFRVFRVFR
WX--VCTSVCTS----------------------
WDir270210210170170170170170170170170170170170
WSpd46655555555555
WGst----------------------------
TAF
KGTR 191731Z 1918/2018 21006KT P6SM VCTS SCT050CB BKN090
  FM192300 17005KT P6SM FEW090
  FM201100 16004KT 4SM BR FEW050 SCT250
  FM201300 17004KT P6SM FEW050 SCT250


METAR Board

Time 19/09Z 19/10Z 19/11Z 19/12Z 19/13Z 19/14Z 19/15Z 19/16Z 19/17Z 19/18Z 19/19Z 19/20Z
Temp74 75 75 76 75 75 73 73 74 77 83 85
Dewpt73 73 73 74 73 73 73 73 73 74 75 74
Altim29.92 29.93 29.93 29.95 29.97 30.00 29.98 30.01 29.98 29.95 29.94 29.93
VIS10 10 10 10 10 10 4 10 10 10 10 10
CIG-- 100 60 50 13 9 18 43 75 -- -- --
CoverCLROVCOVCOVCOVCBKNOVCOVCBKNCLRCLRCLR
FltCatVFRVFRVFRVFRMVFRIFRMVFRVFRVFRVFRVFRVFR
WX------VCTSVCTSTSVCTS -RA BRVCTS -RA-RA------
WDir25002800032090340180190220270
WSpd3 0 3 0 0 6 9 5 6 5 3 4
WGst-- -- -- -- -- -- -- -- -- -- -- --
METAR
KGTR 190856Z AUTO 25003KT 10SM CLR 23/23 A2992 RMK AO2 SLP129 6//// T02330228 55005 PNO $
KGTR 190956Z AUTO 00000KT 10SM OVC100 24/23 A2993 RMK AO2 SLP135 T02390228 PNO $
KGTR 191056Z 28003KT 10SM BKN060 OVC090 24/23 A2993 RMK AO2 LTG DSNT E AND SE SLP136 T02390228 PNO $
KGTR 191156Z 00000KT 10SM VCTS OVC050 24/23 A2995 RMK AO2 LTG DSNT N AND SE AND NW TSB53 SLP140 6//// 7//// T02440233 10250 20233 51011 PNO $
KGTR 191305Z 00000KT 10SM VCTS BKN013 OVC022 24/23 A2997 RMK AO2 LTG DSNT N-SE TSB05 PNO $
KGTR 191404Z 32006KT 10SM TS BKN009 24/23 A3000 RMK AO2 LTG DSNT ALQDS CIG 005V011 PRESRR PNO $
KGTR 191502Z 09009KT 4SM VCTS -RA BR SCT009 BKN018 OVC043 23/23 A2998 RMK AO2 LTG DSNT N-SE PNO $
KGTR 191604Z 34005KT 10SM VCTS -RA SCT007 OVC043 23/23 A3001 RMK AO2 PNO $
KGTR 191656Z 18006KT 10SM -RA FEW037 SCT049 BKN075 23/23 A2998 RMK AO2 TSE10B20E47 SLP149 T02330228 PNO $
KGTR 191756Z 19005KT 10SM CLR 25/23 A2995 RMK AO2 RAE10 SLP141 6//// T02500233 10250 20228 58013 PNO $
KGTR 191856Z 22003KT 10SM CLR 28/24 A2994 RMK AO2 SLP138 T02830239 PNO $
KGTR 191956Z 27004KT 10SM CLR 29/23 A2993 RMK AO2 SLP135 T02940233 PNO $

TAF/METAR Board Legend

Potential Impact
  None Marginal Slight Moderate High
Visibility (sm) >5 3≤X≤5 2≤X<3 0.5≤X<2 <0.5
Ceiling (100 ft) >30 10≤X≤30 6≤X<10 2≤X<6 <2
Wind Speed (kt) <10 10≤X<20 20≤X<30 ≥30
Wind Gust (kt) <15 15≤X<25 25≤X<35 ≥35
Weather No Wx Reported VCTS -TS,-FZRA TS,FZRA +TS,+FZRA




Page loaded:  20:42 UTC  |   01:42 PM Pacific  |   02:42 PM Mountain  |   03:42 PM Central  |   04:42 PM Eastern

 

ADVISORIES

FORECASTS

FORECASTS

OBSERVATIONS

USER TOOLS

ABOUT US